createdAt,value
2022-11-19T00:02:07.838Z,18.4
2022-11-19T00:07:07.912Z,18.1
2022-11-19T00:12:07.716Z,16.9
2022-11-19T00:17:07.648Z,17.6
2022-11-19T00:22:07.693Z,18.4
2022-11-19T00:27:07.726Z,20.8
2022-11-19T00:32:07.881Z,21.9
2022-11-19T00:37:07.756Z,19.0
2022-11-19T00:42:07.630Z,18.7
2022-11-19T00:47:07.612Z,19.7
2022-11-19T00:52:07.622Z,20.0
2022-11-19T00:57:07.605Z,18.7
2022-11-19T01:02:07.884Z,21.9
2022-11-19T01:07:07.698Z,24.3
2022-11-19T01:12:07.578Z,22.6
2022-11-19T01:17:07.868Z,25.6
2022-11-19T01:22:07.569Z,27.3
2022-11-19T01:27:07.544Z,23.3
2022-11-19T01:32:07.680Z,24.9
2022-11-19T01:37:07.608Z,25.6
2022-11-19T01:42:07.655Z,23.8
2022-11-19T01:47:07.777Z,27.3
2022-11-19T01:52:07.495Z,26.5
2022-11-19T01:57:07.519Z,24.3
2022-11-19T02:02:07.974Z,29.0
2022-11-19T02:07:07.812Z,25.7
2022-11-19T02:08:18.384Z,28.9
2022-11-19T02:13:18.373Z,0.0
2022-11-19T02:18:18.350Z,26.9
2022-11-19T02:23:18.345Z,32.4
2022-11-19T02:28:18.469Z,32.7
2022-11-19T02:33:18.385Z,29.6
2022-11-19T02:38:18.371Z,26.8
2022-11-19T02:43:18.498Z,27.6
2022-11-19T02:48:18.347Z,31.8
2022-11-19T02:53:18.279Z,27.4
2022-11-19T02:58:18.415Z,31.5
2022-11-19T03:03:18.286Z,27.3
2022-11-19T03:08:18.275Z,29.4
2022-11-19T03:13:18.357Z,32.9
2022-11-19T03:18:18.274Z,30.4
2022-11-19T03:23:18.224Z,27.9
2022-11-19T03:28:18.368Z,28.2
2022-11-19T03:33:18.220Z,30.3
2022-11-19T03:38:18.234Z,29.5
2022-11-19T03:43:18.451Z,29.5
2022-11-19T03:48:18.192Z,30.7
2022-11-19T03:53:18.289Z,30.5
2022-11-19T03:58:18.347Z,31.2
2022-11-19T04:03:18.208Z,95.6
2022-11-19T04:08:18.209Z,39.2
2022-11-19T04:13:18.385Z,30.4
2022-11-19T04:18:18.134Z,31.8
2022-11-19T04:23:18.124Z,31.6
2022-11-19T04:28:18.315Z,29.2
2022-11-19T04:33:18.148Z,27.7
2022-11-19T04:38:18.945Z,32.4
2022-11-19T04:43:18.095Z,284.7
2022-11-19T04:48:18.146Z,30.5
2022-11-19T04:53:18.174Z,31.0
2022-11-19T04:58:18.085Z,34.2
2022-11-19T05:03:18.030Z,31.4
2022-11-19T05:08:18.182Z,32.7
2022-11-19T05:13:18.296Z,29.2
2022-11-19T05:18:17.976Z,31.8
2022-11-19T05:23:18.112Z,29.4
2022-11-19T05:28:18.088Z,29.3
2022-11-19T05:33:18.169Z,27.9
2022-11-19T05:38:18.128Z,28.8
2022-11-19T05:43:18.068Z,30.4
2022-11-19T05:48:17.915Z,25.3
2022-11-19T05:53:18.655Z,26.3
2022-11-19T05:58:17.974Z,23.0
2022-11-19T06:03:18.104Z,23.5
2022-11-19T06:08:18.241Z,18.4
2022-11-19T06:13:18.404Z,21.1
2022-11-19T06:18:18.094Z,20.8
2022-11-19T06:23:17.861Z,23.7
2022-11-19T06:28:18.093Z,20.9
2022-11-19T06:33:17.965Z,23.1
2022-11-19T06:38:17.828Z,24.6
2022-11-19T06:43:17.982Z,22.5
2022-11-19T06:48:17.926Z,24.2
2022-11-19T06:53:18.082Z,26.5
2022-11-19T06:58:17.814Z,25.8
2022-11-19T07:03:17.940Z,22.0
2022-11-19T07:08:18.141Z,25.3
2022-11-19T07:13:17.894Z,24.1
2022-11-19T07:18:17.751Z,25.6
2022-11-19T07:23:18.040Z,27.9
2022-11-19T07:28:17.821Z,29.0
2022-11-19T07:33:17.861Z,22.4
2022-11-19T07:38:17.932Z,23.5
2022-11-19T07:43:17.728Z,25.8
2022-11-19T07:48:17.792Z,32.5
2022-11-19T07:53:17.861Z,25.2
2022-11-19T07:58:17.741Z,22.8
2022-11-19T08:03:17.758Z,17.3
2022-11-19T08:08:17.928Z,19.8
2022-11-19T08:13:17.732Z,19.4
2022-11-19T08:18:17.724Z,19.8
2022-11-19T08:23:17.857Z,21.0
2022-11-19T08:28:17.646Z,22.0
2022-11-19T08:33:17.704Z,24.5
2022-11-19T08:38:17.812Z,25.8
2022-11-19T08:43:17.671Z,30.4
2022-11-19T08:48:17.592Z,70.0
2022-11-19T08:53:17.893Z,37.5
2022-11-19T08:58:18.514Z,78.7
2022-11-19T09:03:17.689Z,104.4
2022-11-19T09:08:17.666Z,32.7
2022-11-19T09:13:17.911Z,28.7
2022-11-19T09:18:17.645Z,30.8
2022-11-19T09:23:17.572Z,26.5
2022-11-19T09:28:17.935Z,25.9
2022-11-19T09:33:17.614Z,22.5
2022-11-19T09:38:17.639Z,22.7
2022-11-19T09:43:17.754Z,21.7
2022-11-19T09:48:17.596Z,23.9
2022-11-19T09:53:17.712Z,22.0
2022-11-19T09:58:17.711Z,24.9
2022-11-19T10:03:17.660Z,22.7
2022-11-19T10:08:17.484Z,18.2
2022-11-19T10:13:17.747Z,14.0
2022-11-19T10:18:17.749Z,15.4
2022-11-19T10:23:18.274Z,16.8
2022-11-19T10:28:18.826Z,17.2
2022-11-19T10:33:19.699Z,52.5
2022-11-19T10:38:19.723Z,145.6
2022-11-19T10:43:23.466Z,60.0
2022-11-19T10:48:21.850Z,118.1
2022-11-19T10:53:18.455Z,694.4
2022-11-19T10:58:17.524Z,439.2
2022-11-19T11:03:18.244Z,82.1
2022-11-19T11:08:17.500Z,100.3
2022-11-19T11:13:17.439Z,74.7
2022-11-19T11:18:18.297Z,81.9
2022-11-19T11:23:17.459Z,127.0
2022-11-19T11:28:18.227Z,96.0
2022-11-19T11:33:17.435Z,118.3
2022-11-19T11:38:17.479Z,37.3
2022-11-19T11:43:18.118Z,20.2
2022-11-19T11:48:18.226Z,361.5
2022-11-19T11:53:18.202Z,391.7
2022-11-19T11:58:18.186Z,347.8
2022-11-19T12:03:18.106Z,179.0
2022-11-19T12:08:17.416Z,115.8
2022-11-19T12:13:17.360Z,50.3
2022-11-19T12:18:17.278Z,69.9
2022-11-19T12:23:18.660Z,85.3
2022-11-19T12:28:17.359Z,115.7
2022-11-19T12:33:17.531Z,29.2
2022-11-19T12:38:17.194Z,19.8
2022-11-19T12:43:17.382Z,23.8
2022-11-19T12:48:17.256Z,54.3
2022-11-19T12:53:17.217Z,34.5
2022-11-19T12:58:17.240Z,27.6
2022-11-19T13:03:18.069Z,26.6
2022-11-19T13:08:17.276Z,338.7
2022-11-19T13:13:17.196Z,86.1
2022-11-19T13:18:17.574Z,31.0
2022-11-19T13:23:17.870Z,75.9
2022-11-19T13:28:17.133Z,100.3
2022-11-19T13:33:17.208Z,64.6
2022-11-19T13:38:17.358Z,36.1
2022-11-19T13:43:31.573Z,37.5
2022-11-19T13:48:17.431Z,32.3
2022-11-19T13:53:17.267Z,27.4
2022-11-19T13:58:17.158Z,33.6
2022-11-19T14:03:17.159Z,34.8
2022-11-19T14:08:17.299Z,28.3
2022-11-19T14:13:17.588Z,27.6
2022-11-19T14:18:17.134Z,29.1
2022-11-19T14:23:17.407Z,33.6
2022-11-19T14:28:19.693Z,35.7
2022-11-19T14:33:17.034Z,43.2
2022-11-19T14:38:18.260Z,43.6
2022-11-19T14:43:17.068Z,90.0
2022-11-19T14:48:17.087Z,71.8
2022-11-19T14:53:17.237Z,41.7
2022-11-19T14:58:17.906Z,43.1
2022-11-19T15:03:17.750Z,160.2
2022-11-19T15:08:17.765Z,199.9
2022-11-19T15:13:17.769Z,196.0
2022-11-19T15:18:18.923Z,211.6
2022-11-19T15:23:17.736Z,319.4
2022-11-19T15:28:17.681Z,192.9
2022-11-19T15:33:16.925Z,167.3
2022-11-19T15:38:20.458Z,98.5
2022-11-19T15:43:16.880Z,282.0
2022-11-19T15:48:17.649Z,76.7
2022-11-19T15:53:17.029Z,102.6
2022-11-19T15:58:16.878Z,96.3
2022-11-19T16:03:16.851Z,99.9
2022-11-19T16:08:17.535Z,65.0
2022-11-19T16:13:17.578Z,101.5
2022-11-19T16:18:17.507Z,115.5
2022-11-19T16:23:17.569Z,239.3
2022-11-19T16:28:17.549Z,190.7
2022-11-19T16:33:17.605Z,191.7
2022-11-19T16:38:17.585Z,247.9
2022-11-19T16:43:17.733Z,240.8
2022-11-19T16:48:17.548Z,210.0
2022-11-19T16:53:17.774Z,167.4
2022-11-19T16:58:17.456Z,159.4
2022-11-19T17:03:17.536Z,169.2
2022-11-19T17:08:17.557Z,217.3
2022-11-19T17:13:17.529Z,117.3
2022-11-19T17:18:17.412Z,157.5
2022-11-19T17:23:17.532Z,161.2
2022-11-19T17:28:18.378Z,167.1
2022-11-19T17:33:17.475Z,217.5
2022-11-19T17:38:16.758Z,210.9
2022-11-19T17:43:17.432Z,79.0
2022-11-19T17:48:17.458Z,135.3
2022-11-19T17:53:17.394Z,139.4
2022-11-19T17:58:16.688Z,143.5
2022-11-19T18:03:16.693Z,96.3
2022-11-19T18:08:16.780Z,53.9
2022-11-19T18:13:16.558Z,62.0
2022-11-19T18:18:16.796Z,61.6
2022-11-19T18:23:16.669Z,76.6
2022-11-19T18:28:17.024Z,77.5
2022-11-19T18:33:17.231Z,66.4
2022-11-19T18:38:16.650Z,115.1
2022-11-19T18:43:16.619Z,90.2
2022-11-19T18:48:17.326Z,85.1
2022-11-19T18:53:16.659Z,104.2
2022-11-19T18:58:17.506Z,87.3
2022-11-19T19:03:16.525Z,108.7
2022-11-19T19:08:17.283Z,96.4
2022-11-19T19:13:17.321Z,112.3
2022-11-19T19:18:17.255Z,137.8
2022-11-19T19:23:17.359Z,193.3
2022-11-19T19:28:17.213Z,220.9
2022-11-19T19:33:17.240Z,200.2
2022-11-19T19:38:17.737Z,216.8
2022-11-19T19:43:17.239Z,197.9
2022-11-19T19:48:17.437Z,125.5
2022-11-19T19:53:17.382Z,139.3
2022-11-19T19:58:17.170Z,219.9
2022-11-19T20:03:18.409Z,251.8
2022-11-19T20:08:17.612Z,215.6
2022-11-19T20:13:17.414Z,217.0
2022-11-19T20:18:17.268Z,168.1
2022-11-19T20:23:17.245Z,199.1
2022-11-19T20:28:18.017Z,151.9
2022-11-19T20:33:17.178Z,112.1
2022-11-19T20:38:17.397Z,152.2
2022-11-19T20:43:17.363Z,120.8
2022-11-19T20:48:17.143Z,119.1
2022-11-19T20:53:17.211Z,113.4
2022-11-19T20:58:17.166Z,142.9
2022-11-19T21:03:17.129Z,135.8
2022-11-19T21:08:17.050Z,129.0
2022-11-19T21:13:17.389Z,162.5
2022-11-19T21:18:17.002Z,143.7
2022-11-19T21:23:16.953Z,118.9
2022-11-19T21:28:16.994Z,167.6
2022-11-19T21:33:17.014Z,137.8
2022-11-19T21:38:16.408Z,106.0
2022-11-19T21:43:16.466Z,79.7
2022-11-19T21:48:16.992Z,84.9
2022-11-19T21:53:17.121Z,79.7
2022-11-19T21:58:16.946Z,98.9
2022-11-19T22:03:17.568Z,112.4
2022-11-19T22:08:46.297Z,126.0
2022-11-19T22:13:18.368Z,131.2
2022-11-19T22:18:16.980Z,120.1
2022-11-19T22:23:20.158Z,118.1
2022-11-19T22:28:16.981Z,133.4
2022-11-19T22:33:17.204Z,122.5
2022-11-19T22:38:16.953Z,130.8
2022-11-19T22:43:20.276Z,143.2
2022-11-19T22:48:16.880Z,166.9
2022-11-19T22:53:16.871Z,160.3
2022-11-19T22:58:16.843Z,116.9
2022-11-19T23:03:16.899Z,213.6
2022-11-19T23:08:16.782Z,125.6
2022-11-19T23:13:16.837Z,122.2
2022-11-19T23:18:16.729Z,125.0
2022-11-19T23:23:16.810Z,114.7
2022-11-19T23:28:16.788Z,106.2
2022-11-19T23:33:16.032Z,107.5
2022-11-19T23:38:16.769Z,92.5
2022-11-19T23:43:16.009Z,102.2
2022-11-19T23:48:16.025Z,85.1
2022-11-19T23:53:16.280Z,93.4
2022-11-19T23:58:15.961Z,89.6
